Darwin, CA

11:55 AM PDT on September 30, 2016 (GMT -0700)
China Lake NAWS | | Change Station
Active Advisory: Fire Weather Watch Active Notice: Public Information Statement

Elev 2283 ft 35.69 °N, 117.69 °W | Updated 59 minutes ago

Clear
Clear
84 °F
Feels Like 84 °F
N
5
Wind Variable Wind from NE

Today
High -- | Low -- °F
--% Chance of Precip.
Yesterday
High -- | Low -- °F
Precip. -- in
Pressure 30.03 in
Visibility 10.0 miles
Clouds Clear
Dew Point 38 °F
Humidity 19%
Rainfall 0.00 in
Snow Depth Not available.
6:45 AM 6:35 PM
Waning Crescent, 0% visible
METAR KNID 301756Z 05004KT 10SM CLR 29/03 A3009 RMK AO2 SLP168 T02890033 10289 20161 58002 $
Pressure 30.03 in
Visibility 10.0 miles
Clouds Clear
Dew Point 38 °F
Humidity 19%
Rainfall 0.00 in
Snow Depth Not available.
6:45 AM 6:35 PM
Waning Crescent, 0% visible
METAR KNID 301756Z 05004KT 10SM CLR 29/03 A3009 RMK AO2 SLP168 T02890033 10289 20161 58002 $

10-Day Weather Forecast

Almanac

Astronomy

Sep. 30, 2016 Rise Set
Actual Time
Civil Twilight
Nautical Twilight
Astronomical Twilight
Moon
Length of Visible Light
Length of Day
Tomorrow will be .
, % of the Moon is Illuminated

Today's Extremes

State Highs State Lows

Community

WunderPhotos

Upload Photos

1,942,755 photos uploaded!

WunderBlog® & News

Nearby

Air Quality

  Air Quality AQ Index Pollutant
Not available.

Snow Depth

Station Depth Elevation

Earthquake Activity

City Distance Mag. Time & Date
Minimum magnitude displayed is 2.5.

Coastal Water Temperatures

Place Temperature

Stations

Nearby Weather Stations

Station Location Temp. Windchill Dew Point Humidity Wind Precip. Elev Updated Type
                   

Watches & Warnings

Fire Weather Watch
Issued: 2:07 AM PDT Sep. 30, 2016 – National Weather Service

... Fire Weather Watch in effect from Sunday morning through
Sunday evening for strong winds and low relative humidities for
fire weather zones 226... 227... 228... 462... 463... 464... 465 and
466...

The National Weather Service in Las Vegas has issued a Fire
Weather Watch... which is in effect from Sunday morning through
Sunday evening.

* Affected area... in caz226... fire weather zone 226. In caz227...
fire weather zone 227. In caz228... fire weather zone 228. In
nvz462... fire weather zone 462. In nvz463... fire weather zone
463. In nvz464... fire weather zone 464. In nvz465... fire
weather zone 465. In nvz466... fire weather zone 466.

* Timing... Sunday morning through Sunday evening.

* Wind... gusty southwest winds of 15 to 25 mph with gusts to 40 mph
are expected to develop during the late morning and persist
through the afternoon. Wind gusts across parts of northern San
Bernardino County... the Owens Valley... and Spring Mountains may
exceed 50 mph.

* Minimum humidity... 8 to 14 percent.

Precautionary/preparedness actions...

A Fire Weather Watch means that critical fire weather conditions
are forecast to occur. Listen for later forecasts and possible
red flag warnings.




Weather.Gov/lasvegas